createdAt,value
2022-09-15T00:00:01.917Z,19.20
2022-09-15T00:02:28.827Z,19.10
2022-09-15T00:04:55.716Z,19.10
2022-09-15T00:07:22.590Z,19.00
2022-09-15T00:09:49.439Z,19.00
2022-09-15T00:12:16.306Z,18.90
2022-09-15T00:14:43.169Z,18.90
2022-09-15T00:17:10.358Z,18.90
2022-09-15T00:19:37.234Z,18.80
2022-09-15T00:22:04.021Z,18.80
2022-09-15T00:24:30.965Z,18.70
2022-09-15T00:26:57.846Z,18.60
2022-09-15T00:29:24.743Z,18.60
2022-09-15T00:31:51.561Z,18.50
2022-09-15T00:34:18.472Z,18.50
2022-09-15T00:36:46.446Z,18.50
2022-09-15T00:39:13.291Z,18.50
2022-09-15T00:41:41.397Z,18.50
2022-09-15T00:44:20.211Z,18.50
2022-09-15T00:47:09.354Z,18.50
2022-09-15T00:49:39.177Z,18.50
2022-09-15T00:52:27.555Z,18.40
2022-09-15T00:54:54.303Z,18.40
2022-09-15T00:57:27.452Z,18.40
2022-09-15T00:59:57.135Z,18.30
2022-09-15T01:02:33.245Z,18.30
2022-09-15T01:05:04.389Z,18.20
2022-09-15T01:07:38.299Z,18.20
2022-09-15T01:10:15.101Z,18.20
2022-09-15T01:12:42.702Z,18.10
2022-09-15T01:15:10.004Z,18.10
2022-09-15T01:17:59.923Z,18.10
2022-09-15T01:21:05.769Z,18.10
2022-09-15T01:24:10.413Z,18.10
2022-09-15T01:27:24.420Z,18.20
2022-09-15T01:30:15.390Z,18.10
2022-09-15T01:33:14.798Z,18.20
2022-09-15T01:35:52.479Z,18.10
2022-09-15T01:39:00.929Z,18.10
2022-09-15T01:41:54.694Z,18.00
2022-09-15T01:44:44.860Z,18.00
2022-09-15T01:47:16.163Z,18.00
2022-09-15T01:49:49.940Z,18.00
2022-09-15T01:52:19.338Z,18.00
2022-09-15T01:54:50.442Z,18.10
2022-09-15T01:57:21.311Z,18.00
2022-09-15T01:59:54.158Z,18.00
2022-09-15T02:02:43.007Z,18.00
2022-09-15T02:05:33.797Z,18.00
2022-09-15T02:08:10.671Z,18.00
2022-09-15T02:11:04.823Z,18.00
2022-09-15T02:13:48.798Z,18.10
2022-09-15T02:16:25.104Z,18.10
2022-09-15T02:18:55.787Z,18.20
2022-09-15T02:21:36.388Z,18.20
2022-09-15T02:24:12.045Z,18.10
2022-09-15T02:26:40.590Z,18.10
2022-09-15T02:29:10.859Z,18.10
2022-09-15T02:31:39.836Z,18.10
2022-09-15T02:34:13.238Z,18.00
2022-09-15T02:36:41.486Z,17.90
2022-09-15T02:39:13.887Z,17.90
2022-09-15T02:41:41.653Z,17.80
2022-09-15T02:44:09.714Z,17.80
2022-09-15T02:46:37.074Z,17.70
2022-09-15T02:49:03.856Z,17.60
2022-09-15T02:51:31.211Z,17.60
2022-09-15T02:53:58.083Z,17.50
2022-09-15T02:56:24.983Z,17.30
2022-09-15T02:58:51.781Z,17.20
2022-09-15T03:01:18.650Z,17.10
2022-09-15T03:03:46.458Z,17.10
2022-09-15T03:06:17.079Z,17.00
2022-09-15T03:08:47.514Z,17.00
2022-09-15T03:11:15.519Z,17.00
2022-09-15T03:13:42.404Z,17.00
2022-09-15T03:16:10.924Z,17.10
2022-09-15T03:18:38.878Z,17.20
2022-09-15T03:21:07.635Z,17.20
2022-09-15T03:23:34.908Z,17.20
2022-09-15T03:26:02.894Z,17.20
2022-09-15T03:28:30.077Z,17.20
2022-09-15T03:30:56.871Z,17.10
2022-09-15T03:33:24.436Z,17.10
2022-09-15T03:35:52.255Z,17.10
2022-09-15T03:38:20.055Z,17.00
2022-09-15T03:41:01.711Z,17.10
2022-09-15T03:43:30.210Z,17.00
2022-09-15T03:45:57.769Z,17.00
2022-09-15T03:48:25.369Z,17.00
2022-09-15T03:50:52.354Z,17.00
2022-09-15T03:53:20.202Z,17.10
2022-09-15T03:55:48.898Z,17.10
2022-09-15T03:58:17.402Z,17.20
2022-09-15T04:00:45.894Z,17.20
2022-09-15T04:03:13.537Z,17.20
2022-09-15T04:05:40.680Z,17.20
2022-09-15T04:08:07.506Z,17.20
2022-09-15T04:10:34.554Z,17.20
2022-09-15T04:13:01.325Z,17.20
2022-09-15T04:15:28.255Z,17.20
2022-09-15T04:17:55.139Z,17.10
2022-09-15T04:20:22.020Z,17.00
2022-09-15T04:22:48.869Z,17.00
2022-09-15T04:25:15.918Z,16.90
2022-09-15T04:27:42.982Z,16.90
2022-09-15T04:30:10.255Z,16.80
2022-09-15T04:32:37.189Z,16.80
2022-09-15T04:35:05.118Z,16.70
2022-09-15T04:37:33.414Z,16.50
2022-09-15T04:40:01.467Z,16.50
2022-09-15T04:42:28.354Z,16.50
2022-09-15T04:44:55.183Z,16.60
2022-09-15T04:47:22.025Z,16.60
2022-09-15T04:49:48.903Z,16.60
2022-09-15T04:52:15.939Z,16.60
2022-09-15T04:54:42.731Z,16.60
2022-09-15T04:57:09.642Z,16.60
2022-09-15T04:59:36.685Z,16.60
2022-09-15T05:02:04.141Z,16.50
2022-09-15T05:04:31.018Z,16.50
2022-09-15T05:06:57.865Z,16.60
2022-09-15T05:09:26.385Z,16.60
2022-09-15T05:11:53.275Z,16.70
2022-09-15T05:14:20.150Z,16.70
2022-09-15T05:16:46.998Z,16.70
2022-09-15T05:19:13.774Z,16.60
2022-09-15T05:21:40.662Z,16.70
2022-09-15T05:24:07.583Z,16.80
2022-09-15T05:26:34.365Z,16.80
2022-09-15T05:29:01.220Z,16.80
2022-09-15T05:31:32.029Z,16.90
2022-09-15T05:34:01.712Z,16.90
2022-09-15T05:36:28.796Z,16.90
2022-09-15T05:38:56.853Z,16.90
2022-09-15T05:41:24.582Z,16.90
2022-09-15T05:43:51.419Z,16.90
2022-09-15T05:46:20.530Z,16.90
2022-09-15T05:48:47.553Z,17.00
2022-09-15T05:51:15.072Z,17.00
2022-09-15T05:53:42.088Z,17.00
2022-09-15T05:56:13.141Z,17.10
2022-09-15T05:58:45.752Z,17.20
2022-09-15T06:01:22.938Z,17.30
2022-09-15T06:03:50.136Z,17.40
2022-09-15T06:06:17.639Z,17.50
2022-09-15T06:08:50.057Z,17.50
2022-09-15T06:11:21.427Z,17.60
2022-09-15T06:13:49.033Z,17.60
2022-09-15T06:16:25.112Z,17.70
2022-09-15T06:18:53.836Z,17.70
2022-09-15T06:21:23.779Z,17.70
2022-09-15T06:24:01.989Z,17.70
2022-09-15T06:26:29.066Z,17.70
2022-09-15T06:29:01.255Z,17.70
2022-09-15T06:31:31.717Z,17.60
2022-09-15T06:33:59.659Z,17.50
2022-09-15T06:36:29.029Z,17.60
2022-09-15T06:38:56.990Z,17.60
2022-09-15T06:41:24.018Z,17.70
2022-09-15T06:43:51.121Z,17.80
2022-09-15T06:46:23.904Z,18.00
2022-09-15T06:48:52.077Z,18.30
2022-09-15T06:51:21.526Z,18.60
2022-09-15T06:53:48.426Z,18.80
2022-09-15T06:56:18.507Z,19.20
2022-09-15T06:58:46.440Z,19.60
2022-09-15T07:01:19.538Z,19.80
2022-09-15T07:03:46.508Z,20.10
2022-09-15T07:06:13.534Z,20.30
2022-09-15T07:08:40.838Z,20.50
2022-09-15T07:11:09.091Z,20.60
2022-09-15T07:13:36.366Z,20.80
2022-09-15T07:16:05.675Z,21.00
2022-09-15T07:18:33.100Z,21.20
2022-09-15T07:21:05.946Z,21.40
2022-09-15T07:23:34.098Z,21.30
2022-09-15T07:26:12.924Z,21.30
2022-09-15T07:28:42.330Z,21.30
2022-09-15T07:31:10.802Z,21.30
2022-09-15T07:33:38.097Z,21.10
2022-09-15T07:36:06.975Z,21.30
2022-09-15T07:38:35.300Z,21.40
2022-09-15T07:41:06.898Z,21.50
2022-09-15T07:43:34.111Z,21.80
2022-09-15T07:46:02.274Z,21.90
2022-09-15T07:48:29.908Z,21.90
2022-09-15T07:50:57.181Z,21.90
2022-09-15T07:53:24.154Z,21.90
2022-09-15T07:55:53.986Z,22.20
2022-09-15T07:58:21.638Z,22.10
2022-09-15T08:00:49.029Z,22.10
2022-09-15T08:03:16.653Z,22.10
2022-09-15T08:05:45.558Z,22.20
2022-09-15T08:08:13.190Z,22.00
2022-09-15T08:10:41.808Z,21.70
2022-09-15T08:13:08.962Z,21.40
2022-09-15T08:15:37.815Z,21.20
2022-09-15T08:18:05.587Z,21.10
2022-09-15T08:20:33.210Z,21.10
2022-09-15T08:23:00.189Z,21.00
2022-09-15T08:25:27.024Z,20.90
2022-09-15T08:27:55.083Z,20.90
2022-09-15T08:30:23.578Z,21.00
2022-09-15T08:32:51.067Z,21.20
2022-09-15T08:35:18.593Z,21.40
2022-09-15T08:37:45.950Z,21.40
2022-09-15T08:40:26.894Z,21.20
2022-09-15T08:42:58.338Z,21.30
2022-09-15T08:45:27.862Z,21.20
2022-09-15T08:47:59.935Z,21.20
2022-09-15T08:50:33.536Z,21.10
2022-09-15T08:53:09.815Z,21.10
2022-09-15T08:55:36.802Z,21.00
2022-09-15T08:58:05.026Z,20.80
2022-09-15T09:00:32.623Z,20.90
2022-09-15T09:03:19.521Z,21.00
2022-09-15T09:05:54.267Z,21.30
2022-09-15T09:08:52.516Z,21.70
2022-09-15T09:11:25.046Z,21.60
2022-09-15T09:14:06.882Z,22.00
2022-09-15T09:16:49.901Z,22.30
2022-09-15T09:19:31.999Z,22.60
2022-09-15T09:22:16.450Z,23.00
2022-09-15T09:24:55.139Z,23.10
2022-09-15T09:27:29.177Z,23.10
2022-09-15T09:30:15.660Z,22.90
2022-09-15T09:33:05.041Z,22.50
2022-09-15T09:35:40.424Z,22.10
2022-09-15T09:38:09.989Z,21.90
2022-09-15T09:40:41.151Z,21.70
2022-09-15T09:43:08.805Z,21.50
2022-09-15T09:45:35.807Z,21.20
2022-09-15T09:48:13.163Z,21.00
2022-09-15T09:50:45.345Z,20.90
2022-09-15T09:53:18.193Z,20.80
2022-09-15T09:55:45.984Z,20.80
2022-09-15T09:58:18.324Z,20.80
2022-09-15T10:00:45.672Z,20.90
2022-09-15T10:03:24.127Z,21.10
2022-09-15T10:06:14.633Z,21.10
2022-09-15T10:08:58.071Z,21.10
2022-09-15T10:11:48.466Z,21.20
2022-09-15T10:14:22.922Z,21.30
2022-09-15T10:17:17.534Z,21.20
2022-09-15T10:19:44.308Z,21.00
2022-09-15T10:22:25.086Z,21.20
2022-09-15T10:24:52.357Z,21.20
2022-09-15T10:27:34.633Z,21.00
2022-09-15T10:30:13.912Z,20.90
2022-09-15T10:32:42.091Z,20.80
2022-09-15T10:35:15.061Z,20.60
2022-09-15T10:38:05.066Z,20.50
2022-09-15T10:40:49.961Z,20.40
2022-09-15T10:44:02.110Z,20.20
2022-09-15T10:46:45.178Z,20.10
2022-09-15T10:49:41.212Z,20.10
2022-09-15T10:52:32.706Z,19.90
2022-09-15T10:55:42.195Z,19.50
2022-09-15T10:58:45.784Z,19.30
2022-09-15T11:01:28.898Z,19.20
2022-09-15T11:04:11.405Z,19.20
2022-09-15T11:07:05.666Z,19.20
2022-09-15T11:09:45.737Z,19.30
2022-09-15T11:12:25.860Z,19.30
2022-09-15T11:14:55.215Z,19.30
2022-09-15T11:17:35.698Z,19.50
2022-09-15T11:20:05.774Z,19.50
2022-09-15T11:22:52.290Z,19.50
2022-09-15T11:25:27.046Z,19.40
2022-09-15T11:28:03.177Z,19.40
2022-09-15T11:30:34.746Z,19.40
2022-09-15T11:33:19.138Z,19.40
2022-09-15T11:35:53.816Z,19.20
2022-09-15T11:38:35.678Z,19.20
2022-09-15T11:41:10.375Z,19.20
2022-09-15T11:43:46.072Z,19.30
2022-09-15T11:46:23.854Z,19.60
2022-09-15T11:49:22.225Z,19.80
2022-09-15T11:52:01.826Z,20.00
2022-09-15T11:54:51.666Z,20.10
2022-09-15T11:57:27.034Z,20.50
2022-09-15T12:00:10.903Z,20.70
2022-09-15T12:02:56.647Z,21.00
2022-09-15T12:05:42.060Z,21.30
2022-09-15T12:08:17.161Z,21.10
2022-09-15T12:10:49.034Z,20.90
2022-09-15T12:13:18.749Z,20.90
2022-09-15T12:15:47.700Z,21.00
2022-09-15T12:18:37.756Z,21.30
2022-09-15T12:21:21.279Z,21.20
2022-09-15T12:24:18.523Z,21.10
2022-09-15T12:26:46.744Z,21.10
2022-09-15T12:29:22.368Z,21.00
2022-09-15T12:32:09.838Z,21.10
2022-09-15T12:34:38.795Z,21.10
2022-09-15T12:37:13.658Z,20.90
2022-09-15T12:39:45.227Z,20.90
2022-09-15T12:42:33.640Z,20.80
2022-09-15T12:45:19.595Z,20.90
2022-09-15T12:47:54.745Z,20.80
2022-09-15T12:50:38.145Z,20.80
2022-09-15T12:53:26.719Z,20.70
2022-09-15T12:55:57.537Z,20.70
2022-09-15T12:58:30.347Z,20.80
2022-09-15T13:01:19.431Z,21.00
2022-09-15T13:03:46.652Z,21.30
2022-09-15T13:06:27.415Z,21.40
2022-09-15T13:09:03.870Z,21.60
2022-09-15T13:11:34.822Z,21.60
2022-09-15T13:14:06.681Z,21.60
2022-09-15T13:16:33.443Z,21.50
2022-09-15T13:19:18.757Z,21.40
2022-09-15T13:21:53.509Z,21.40
2022-09-15T13:24:44.802Z,21.40
2022-09-15T13:27:13.388Z,21.30
2022-09-15T13:29:48.189Z,21.10
2022-09-15T13:32:41.475Z,21.10
2022-09-15T13:35:25.005Z,20.90
2022-09-15T13:38:23.006Z,21.00
2022-09-15T13:41:32.856Z,20.80
2022-09-15T13:44:41.119Z,20.90
2022-09-15T13:47:22.663Z,21.10
2022-09-15T13:49:55.150Z,20.90
2022-09-15T13:52:22.538Z,20.60
2022-09-15T13:55:19.614Z,20.40
2022-09-15T14:01:05.694Z,19.80
2022-09-15T14:03:37.310Z,19.50
2022-09-15T14:06:17.151Z,19.40
2022-09-15T14:08:48.579Z,19.30
2022-09-15T14:11:21.668Z,19.30
2022-09-15T14:13:50.440Z,19.40
2022-09-15T14:16:24.536Z,19.40
2022-09-15T14:18:54.155Z,19.50
2022-09-15T14:21:26.913Z,19.50
2022-09-15T14:23:56.343Z,19.50
2022-09-15T14:26:26.653Z,19.60
2022-09-15T14:29:04.058Z,19.60
2022-09-15T14:31:41.066Z,19.60
2022-09-15T14:34:18.531Z,19.60
2022-09-15T14:36:46.607Z,19.70
2022-09-15T14:39:23.574Z,19.70
2022-09-15T14:41:51.231Z,19.90
2022-09-15T14:47:29.019Z,20.10
2022-09-15T14:50:14.035Z,20.30
2022-09-15T14:52:45.202Z,20.30
2022-09-15T14:55:24.184Z,20.30
2022-09-15T14:57:55.631Z,20.20
2022-09-15T15:00:26.902Z,20.20
2022-09-15T15:03:03.693Z,20.10
2022-09-15T15:05:38.616Z,20.10
2022-09-15T15:08:09.154Z,20.00
2022-09-15T15:10:37.286Z,19.90
2022-09-15T15:13:16.270Z,19.70
2022-09-15T15:15:44.786Z,19.50
2022-09-15T15:18:36.062Z,19.40
2022-09-15T15:21:03.654Z,19.30
2022-09-15T15:23:32.001Z,19.10
2022-09-15T15:26:29.679Z,19.00
2022-09-15T15:28:56.526Z,18.80
2022-09-15T15:31:25.908Z,18.60
2022-09-15T15:33:55.863Z,18.50
2022-09-15T15:36:25.034Z,18.40
2022-09-15T15:38:54.772Z,18.40
2022-09-15T15:41:28.774Z,18.30
2022-09-15T15:44:03.358Z,18.20
2022-09-15T15:47:23.346Z,18.20
2022-09-15T15:50:13.402Z,18.10
2022-09-15T15:52:41.704Z,18.00
2022-09-15T15:55:13.967Z,18.00
2022-09-15T15:57:41.391Z,18.00
2022-09-15T16:00:31.921Z,17.90
2022-09-15T16:02:58.747Z,17.90
2022-09-15T16:05:27.659Z,17.80
2022-09-15T16:07:56.588Z,17.80
2022-09-15T16:10:28.042Z,17.70
2022-09-15T16:12:54.958Z,17.70
2022-09-15T16:15:22.727Z,17.60
2022-09-15T16:17:49.896Z,17.60
2022-09-15T16:20:19.681Z,17.60
2022-09-15T16:22:46.704Z,17.50
2022-09-15T16:25:21.190Z,17.50
2022-09-15T16:27:48.138Z,17.40
2022-09-15T16:30:14.955Z,17.40
2022-09-15T16:32:41.814Z,17.30
2022-09-15T16:35:29.398Z,17.30
2022-09-15T16:37:56.225Z,17.20
2022-09-15T16:40:23.267Z,17.20
2022-09-15T16:42:50.219Z,17.20
2022-09-15T16:45:26.787Z,17.10
2022-09-15T16:47:53.612Z,17.10
2022-09-15T16:50:20.591Z,17.00
2022-09-15T16:52:47.495Z,17.00
2022-09-15T16:55:27.435Z,16.90
2022-09-15T16:57:54.562Z,17.00
2022-09-15T17:00:21.533Z,16.90
2022-09-15T17:02:48.581Z,16.80
2022-09-15T17:05:21.177Z,16.80
2022-09-15T17:07:48.042Z,16.70
2022-09-15T17:10:15.346Z,16.70
2022-09-15T17:12:42.618Z,16.70
2022-09-15T17:15:25.014Z,16.70
2022-09-15T17:17:58.560Z,16.50
2022-09-15T17:20:25.898Z,16.50
2022-09-15T17:22:54.313Z,16.50
2022-09-15T17:25:34.951Z,16.50
2022-09-15T17:28:02.501Z,16.50
2022-09-15T17:30:32.390Z,16.50
2022-09-15T17:33:04.510Z,16.50
2022-09-15T17:35:34.135Z,16.50
2022-09-15T17:38:02.516Z,16.40
2022-09-15T17:40:29.861Z,16.40
2022-09-15T17:42:56.850Z,16.50
2022-09-15T17:45:35.390Z,16.50
2022-09-15T17:48:04.033Z,16.50
2022-09-15T17:50:33.289Z,16.50
2022-09-15T17:53:00.474Z,16.50
2022-09-15T17:55:34.300Z,16.50
2022-09-15T17:58:02.678Z,16.50
2022-09-15T18:00:35.770Z,16.50
2022-09-15T18:03:10.358Z,16.50
2022-09-15T18:05:37.766Z,16.50
2022-09-15T18:08:05.911Z,16.50
2022-09-15T18:10:34.966Z,16.40
2022-09-15T18:13:03.669Z,16.40
2022-09-15T18:15:33.076Z,16.40
2022-09-15T18:18:08.619Z,16.40
2022-09-15T18:20:38.782Z,16.40
2022-09-15T18:23:05.718Z,16.30
2022-09-15T18:25:34.926Z,16.30
2022-09-15T18:28:02.690Z,16.20
2022-09-15T18:30:38.421Z,16.20
2022-09-15T18:33:05.568Z,16.10
2022-09-15T18:35:32.459Z,16.10
2022-09-15T18:38:00.366Z,16.10
2022-09-15T18:40:28.035Z,16.00
2022-09-15T18:42:56.586Z,16.00
2022-09-15T18:45:23.476Z,16.00
2022-09-15T18:47:52.278Z,16.10
2022-09-15T18:50:23.143Z,16.10
2022-09-15T18:52:50.284Z,16.10
2022-09-15T18:55:21.771Z,16.10
2022-09-15T18:57:49.406Z,16.10
2022-09-15T19:00:19.826Z,16.10
2022-09-15T19:02:47.355Z,16.00
2022-09-15T19:05:15.723Z,15.90
2022-09-15T19:07:44.017Z,15.80
2022-09-15T19:10:12.368Z,15.70
2022-09-15T19:12:39.619Z,15.70
2022-09-15T19:15:10.927Z,15.60
2022-09-15T19:17:39.317Z,15.50
2022-09-15T19:20:08.448Z,15.50
2022-09-15T19:22:35.822Z,15.40
2022-09-15T19:25:03.519Z,15.30
2022-09-15T19:27:30.399Z,15.20
2022-09-15T19:29:58.269Z,15.30
2022-09-15T19:32:25.091Z,15.30
2022-09-15T19:34:51.882Z,15.30
2022-09-15T19:37:20.758Z,15.30
2022-09-15T19:39:48.557Z,15.40
2022-09-15T19:44:48.029Z,15.50
2022-09-15T19:47:15.003Z,15.60
2022-09-15T19:49:42.022Z,15.70
2022-09-15T19:52:09.060Z,15.70
2022-09-15T19:54:35.978Z,15.80
2022-09-15T19:57:03.725Z,15.90
2022-09-15T19:59:31.799Z,16.00
2022-09-15T20:01:59.852Z,16.10
2022-09-15T20:04:27.760Z,16.10
2022-09-15T20:06:54.857Z,16.10
2022-09-15T20:09:21.680Z,16.10
2022-09-15T20:11:48.497Z,16.00
2022-09-15T20:14:15.950Z,16.00
2022-09-15T20:16:43.041Z,16.00
2022-09-15T20:19:09.959Z,16.00
2022-09-15T20:21:54.062Z,15.90
2022-09-15T20:24:22.010Z,15.80
2022-09-15T20:26:48.866Z,15.70
2022-09-15T20:29:16.027Z,15.60
2022-09-15T20:31:43.575Z,15.60
2022-09-15T20:34:10.421Z,15.60
2022-09-15T20:36:39.003Z,15.50
2022-09-15T20:39:10.613Z,15.40
2022-09-15T20:41:37.823Z,15.40
2022-09-15T20:44:06.140Z,15.40
2022-09-15T20:46:33.548Z,15.40
2022-09-15T20:49:01.470Z,15.40
2022-09-15T20:51:31.685Z,15.40
2022-09-15T20:54:00.625Z,15.40
2022-09-15T20:56:29.026Z,15.40
2022-09-15T20:58:59.662Z,15.30
2022-09-15T21:01:28.828Z,15.30
2022-09-15T21:03:55.858Z,15.30
2022-09-15T21:06:25.654Z,15.30
2022-09-15T21:08:53.460Z,15.20
2022-09-15T21:11:21.345Z,15.20
2022-09-15T21:13:49.339Z,15.10
2022-09-15T21:16:18.607Z,15.00
2022-09-15T21:18:46.424Z,15.00
2022-09-15T21:21:19.103Z,15.00
2022-09-15T21:23:52.030Z,14.90
2022-09-15T21:26:27.450Z,14.90
2022-09-15T21:28:55.804Z,14.90
2022-09-15T21:31:26.161Z,14.90
2022-09-15T21:33:53.773Z,14.90
2022-09-15T21:36:23.221Z,14.90
2022-09-15T21:38:52.063Z,15.00
2022-09-15T21:41:22.033Z,15.00
2022-09-15T21:43:53.141Z,15.00
2022-09-15T21:46:21.200Z,15.00
2022-09-15T21:48:48.760Z,15.10
2022-09-15T21:51:24.245Z,15.10
2022-09-15T21:53:53.042Z,15.10
2022-09-15T21:56:20.545Z,15.10
2022-09-15T21:58:47.430Z,15.10
2022-09-15T22:01:31.410Z,15.10
2022-09-15T22:04:04.874Z,15.10
2022-09-15T22:06:34.353Z,15.10
2022-09-15T22:09:04.716Z,15.20
2022-09-15T22:11:31.869Z,15.20
2022-09-15T22:13:59.137Z,15.10
2022-09-15T22:16:26.837Z,15.10
2022-09-15T22:18:54.547Z,15.20
2022-09-15T22:21:24.584Z,15.20
2022-09-15T22:23:54.016Z,15.20
2022-09-15T22:26:23.894Z,15.30
2022-09-15T22:28:50.723Z,15.20
2022-09-15T22:31:19.842Z,15.20
2022-09-15T22:33:47.524Z,15.20
2022-09-15T22:36:17.246Z,15.20
2022-09-15T22:38:44.402Z,15.20
2022-09-15T22:41:13.713Z,15.20
2022-09-15T22:43:44.063Z,15.20
2022-09-15T22:46:11.857Z,15.20
2022-09-15T22:48:43.265Z,15.20
2022-09-15T22:51:10.961Z,15.20
2022-09-15T22:53:37.815Z,15.20
2022-09-15T22:56:19.723Z,15.20
2022-09-15T22:58:48.535Z,15.20
2022-09-15T23:01:20.463Z,15.30
2022-09-15T23:03:59.035Z,15.20
2022-09-15T23:06:27.980Z,15.20
2022-09-15T23:08:57.584Z,15.30
2022-09-15T23:11:25.971Z,15.40
2022-09-15T23:13:53.727Z,15.40
2022-09-15T23:16:22.095Z,15.50
2022-09-15T23:18:49.398Z,15.50
2022-09-15T23:21:16.489Z,15.50
2022-09-15T23:23:46.111Z,15.50
2022-09-15T23:26:19.985Z,15.40
2022-09-15T23:28:47.560Z,15.40
2022-09-15T23:31:14.953Z,15.40
2022-09-15T23:33:42.874Z,15.40
2022-09-15T23:36:12.836Z,15.30
2022-09-15T23:38:41.584Z,15.30
2022-09-15T23:41:09.437Z,15.30
2022-09-15T23:43:36.642Z,15.30
2022-09-15T23:46:04.004Z,15.30
2022-09-15T23:48:33.684Z,15.30
2022-09-15T23:51:00.862Z,15.30
2022-09-15T23:53:28.227Z,15.30
2022-09-15T23:55:55.189Z,15.30
2022-09-15T23:58:21.964Z,15.30
